KSPA/SPA METAR and TAF weather

Enter ICAO airport designator
Station Type Date Time Source
KSPA METAR 2018/12/12 07:15 UTC NOAA

KSPA 120715Z AUTO 25004KT 10SM CLR 00/M03 A3015 RMK AO2


Station Type Date Time Source
KSPA Decoded METAR 2018/12/12 07:15 UTC NOAA

Spartanburg Memorial, SC, United States (KSPA) 34-55N 081-57W
Dec 12, 2018 - 02:15 AM EST / 2018.12.12 0715 UTC
Wind: from the WSW (250 degrees) at 5 MPH (4 KT):0
Visibility: 10 mile(s):0
Sky conditions: clear
Temperature: 32 F (0 C)
Windchill: 26 F (-3 C):1
Dew Point: 26 F (-3 C)
Relative Humidity: 80%
Pressure (altimeter): 30.15 in. Hg (1020 hPa)
ob: KSPA 120715Z AUTO 25004KT 10SM CLR 00/M03 A3015 RMK AO2
cycle: 7

Station Type Date Time Source
KSPA TAF UTC NOAA

Error!


Example: see airport list